DW7875 Weather Reports


Display with metric or nautical units.
time (UTC)temp
F
wind
direction
speed
MPH
gust
MPH
rain 1hr
in
rain 24hr
in
rain mn
in
humidity
%
barometer
mb
20190221141600 38 248 0.0 4.0 0.05 0.45 0.10 92 1017.1
20190221140027 37 231 1.0 5.0 0.04 0.43 0.08 93 1017.2
20190221134512 36 235 1.0 3.0 0.03 0.42 0.07 94 1017.3
20190221133012 35 259 1.0 3.0 0.02 0.41 0.06 94 1017.0
20190221131511 34 309 0.0 2.0 0.01 0.40 0.05 94 1016.9
20190221130136 33 309 0.0 1.0 0.00 0.39 0.04 94 1016.7
20190221124813 33 309 0.0 1.0 0.00 0.39 0.04 94 1016.7
20190221123215 33 309 0.0 0.0 0.00 0.39 0.04 94 1016.0
20190221121649 33 309 0.0 1.0 0.01 0.39 0.04 94 1016.0
20190221120135 33 309 0.0 1.0 0.01 0.39 0.04 94 1015.7
20190221114632 33 309 0.0 1.0 0.01 0.39 0.04 94 1015.6
20190221113205 33 309 0.0 1.0 0.01 0.39 0.04 94 1016.0
20190221111708 33 309 0.0 1.0 0.00 0.38 0.03 94 1016.1
20190221110146 33 309 0.0 0.0 0.00 0.38 0.03 94 1015.7
20190221104720 33 309 0.0 1.0 0.00 0.38 0.03 94 1015.7
20190221103149 33 309 0.0 0.0 0.00 0.38 0.03 94 1015.4
20190221101608 33 309 0.0 0.0 0.01 0.38 0.03 94 1015.6
20190221100207 33 309 0.0 1.0 0.01 0.38 0.03 94 1015.6
20190221094616 33 309 0.0 1.0 0.01 0.38 0.03 94 1015.4
20190221093107 33 309 0.0 1.0 0.01 0.38 0.03 94 1015.3
20190221091603 33 309 0.0 0.0 0.00 0.37 0.02 94 1015.2
20190221090113 33 309 0.0 1.0 0.00 0.37 0.02 94 1015.3
20190221084611 32 309 0.0 1.0 0.00 0.37 0.02 94 1015.0
20190221083109 32 309 0.0 2.0 0.01 0.37 0.02 94 1015.2
20190221081625 32 309 0.0 1.0 0.01 0.37 0.02 94 1015.1
20190221074625 32 309 0.0 2.0 0.01 0.37 0.02 94 1015.1
20190221073055 32 309 0.0 1.0 0.00 0.36 0.01 94 1015.3
20190221071608 32 309 0.0 1.0 0.00 0.36 0.01 94 1015.5
20190221070115 32 309 0.0 2.0 0.00 0.36 0.01 94 1015.9
20190221064521 32 309 0.0 2.0 0.01 0.36 0.01 94 1016.1
20190221063031 32 309 0.0 2.0 0.01 0.36 0.01 94 1016.3
20190221061548 32 311 0.0 2.0 0.01 0.36 0.01 94 1016.1
20190221060026 32 311 1.0 6.0 0.01 0.36 0.01 94 1016.3
20190221054521 32 301 1.0 5.0 0.01 0.35 0.00 94 1016.2
20190221053035 32 299 2.0 6.0 0.01 0.35 0.00 94 1016.2
20190221051513 32 318 1.0 6.0 0.01 0.35 0.00 94 1016.3
20190221050003 32 288 3.0 5.0 0.01 0.35 0.00 94 1016.6
20190221044503 32 308 3.0 6.0 0.00 0.34 0.34 94 1016.8
20190221043201 32 301 1.0 5.0 0.01 0.34 0.34 93 1016.5
20190221041712 32 307 1.0 6.0 0.01 0.34 0.34 94 1017.3
20190221040136 33 290 2.0 7.0 0.01 0.34 0.34 94 1017.6
20190221034718 33 309 3.0 7.0 0.02 0.34 0.34 94 1017.7
20190221033209 33 277 3.0 7.0 0.01 0.33 0.33 93 1017.9
20190221031800 33 316 2.0 5.0 0.02 0.33 0.33 93 1018.2
20190221030158 34 309 1.0 4.0 0.02 0.33 0.33 94 1018.3
20190221024813 34 36 0.0 5.0 0.02 0.32 0.32 94 1018.4
20190221023145 34 46 1.0 3.0 0.02 0.32 0.32 94 1019.1
20190221021601 34 13 0.0 2.0 0.03 0.31 0.31 94 1019.1
20190221020126 33 345 0.0 3.0 0.04 0.31 0.31 94 1019.9
20190221014642 33 11 1.0 4.0 0.05 0.30 0.30 94 1020.0
20190221013059 33 360 1.0 2.0 0.04 0.28 0.28 93 1020.4
20190221011621 33 71 1.0 3.0 0.04 0.28 0.28 93 1020.7
20190221010127 34 314 0.0 3.0 0.03 0.27 0.27 93 1022.7
20190221004649 34 342 1.0 3.0 0.02 0.25 0.25 94 1022.7
20190221003108 34 29 1.0 3.0 0.02 0.25 0.25 93 1023.1
20190221001616 34 36 0.0 4.0 0.03 0.24 0.24 93 1023.1
20190221000120 34 6 1.0 3.0 0.03 0.24 0.24 93 1023.8
20190220234556 34 38 1.0 5.0 0.03 0.23 0.23 94 1023.1
20190220233100 33 311 1.0 4.0 0.02 0.22 0.22 93 1024.7
20190220231637 33 27 1.0 3.0 0.01 0.21 0.21 93 1024.3
20190220230118 33 53 2.0 5.0 0.01 0.21 0.21 93 1023.8
20190220224600 33 98 1.0 5.0 0.01 0.20 0.20 93 1024.1
20190220223101 33 37 0.0 3.0 0.01 0.20 0.20 93 1025.0
20190220221537 33 33 0.0 1.0 0.01 0.20 0.20 93 1025.2
20190220220047 33 35 0.0 3.0 0.02 0.20 0.20 93 1025.7
20190220214532 33 19 0.0 3.0 0.01 0.19 0.19 93 1025.6
20190220213030 33 86 0.0 1.0 0.02 0.19 0.19 93 1026.0
20190220211541 33 86 0.0 1.0 0.03 0.19 0.19 93 1026.1
20190220210043 33 86 1.0 4.0 0.04 0.18 0.18 93 1025.8
20190220204529 33 93 0.0 2.0 0.05 0.18 0.18 92 1026.5
20190220203025 33 75 1.0 6.0 0.07 0.17 0.17 92 1026.4
20190220201516 33 75 0.0 5.0 0.08 0.16 0.16 92 1027.0
20190220200043 33 105 1.0 5.0 0.09 0.14 0.14 92 1027.2
20190220194538 33 120 2.0 8.0 0.11 0.12 0.12 92 1027.8
20190220193011 33 69 3.0 8.0 0.10 0.10 0.10 92 1028.0
20190220191506 33 127 5.0 12.0 0.08 0.08 0.08 92 1028.0
20190220190001 32 124 6.0 9.0 0.04 0.04 0.04 92 1028.3
20190220184744 32 124 3.0 6.0 0.01 0.01 0.01 91 1028.8
20190220183223 32 113 6.0 10.0 0.00 0.00 0.00 91 1028.4
20190220181741 31 136 7.0 11.0 0.00 0.00 0.00 92 1028.7
20190220180149 31 112 4.0 7.0 0.00 0.00 0.00 91 1030.0
20190220174659 31 103 1.0 5.0 0.00 0.00 0.00 91 1030.6
20190220173150 31 89 2.0 5.0 0.00 0.00 0.00 91 1031.2
20190220171649 31 76 3.0 6.0 0.00 0.00 0.00 91 1032.2
20190220170134 31 58 3.0 0.0 0.00 0.00 0.00 91 1032.4
20190220164652 31 50 1.0 5.0 0.00 0.00 0.00 91 1033.1
20190220163125 31 44 2.0 4.0 0.00 0.00 0.00 91 1034.2
20190220161643 31 63 2.0 12.0 0.00 0.00 0.00 91 1032.4
20190220160148 31 93 7.0 11.0 0.00 0.00 0.00 91 1032.6
20190220154636 31 85 4.0 9.0 0.00 0.00 0.00 91 1032.6
20190220153055 31 96 7.0 12.0 0.00 0.00 0.00 91 1032.5
20190220151647 31 117 9.0 12.0 0.00 0.00 0.00 91 1032.3
20190220150122 30 111 7.0 13.0 0.00 0.00 0.00 91 1033.1
20190220144630 30 120 9.0 12.0 0.00 0.00 0.00 91 1033.3
20190220143159 30 108 6.0 12.0 0.00 0.00 0.00 87 1033.0